sensor_id;sensor_type;location;lat;lon;timestamp;P1;durP1;ratioP1;P2;durP2;ratioP2
77076;SDS011;66003;52.286;104.306;2023-04-02T00:00:31;4.05;;;0.93;;
77076;SDS011;66003;52.286;104.306;2023-04-02T00:02:59;7.40;;;1.42;;
77076;SDS011;66003;52.286;104.306;2023-04-02T00:05:31;4.82;;;1.98;;
77076;SDS011;66003;52.286;104.306;2023-04-02T00:08:23;5.07;;;2.67;;
77076;SDS011;66003;52.286;104.306;2023-04-02T00:10:56;5.20;;;2.17;;
77076;SDS011;66003;52.286;104.306;2023-04-02T00:15:56;7.38;;;2.75;;
77076;SDS011;66003;52.286;104.306;2023-04-02T00:18:24;5.43;;;2.63;;
77076;SDS011;66003;52.286;104.306;2023-04-02T00:23:27;7.35;;;2.45;;
77076;SDS011;66003;52.286;104.306;2023-04-02T00:25:54;10.60;;;2.40;;
77076;SDS011;66003;52.286;104.306;2023-04-02T00:28:21;6.72;;;2.63;;
77076;SDS011;66003;52.286;104.306;2023-04-02T00:30:49;9.13;;;2.40;;
77076;SDS011;66003;52.286;104.306;2023-04-02T00:33:19;8.07;;;4.25;;
77076;SDS011;66003;52.286;104.306;2023-04-02T00:35:48;6.55;;;3.10;;
77076;SDS011;66003;52.286;104.306;2023-04-02T00:38:20;9.90;;;3.58;;
77076;SDS011;66003;52.286;104.306;2023-04-02T00:40:50;8.75;;;2.35;;
77076;SDS011;66003;52.286;104.306;2023-04-02T00:43:19;9.73;;;3.65;;
77076;SDS011;66003;52.286;104.306;2023-04-02T00:45:53;5.60;;;2.10;;
77076;SDS011;66003;52.286;104.306;2023-04-02T00:51:06;5.53;;;1.88;;
77076;SDS011;66003;52.286;104.306;2023-04-02T00:53:40;7.65;;;2.95;;
77076;SDS011;66003;52.286;104.306;2023-04-02T00:56:41;7.38;;;2.20;;
77076;SDS011;66003;52.286;104.306;2023-04-02T01:02:18;6.30;;;2.15;;
77076;SDS011;66003;52.286;104.306;2023-04-02T01:05:06;9.43;;;2.45;;
77076;SDS011;66003;52.286;104.306;2023-04-02T01:11:29;7.78;;;2.92;;
77076;SDS011;66003;52.286;104.306;2023-04-02T01:25:06;5.20;;;1.75;;
77076;SDS011;66003;52.286;104.306;2023-04-02T01:27:39;5.07;;;2.55;;
77076;SDS011;66003;52.286;104.306;2023-04-02T01:30:12;10.77;;;2.55;;
77076;SDS011;66003;52.286;104.306;2023-04-02T01:32:40;4.57;;;2.58;;
77076;SDS011;66003;52.286;104.306;2023-04-02T01:35:08;4.80;;;2.13;;
77076;SDS011;66003;52.286;104.306;2023-04-02T01:40:50;5.30;;;2.63;;
77076;SDS011;66003;52.286;104.306;2023-04-02T01:43:46;4.82;;;2.30;;
77076;SDS011;66003;52.286;104.306;2023-04-02T01:46:30;10.25;;;3.47;;
77076;SDS011;66003;52.286;104.306;2023-04-02T01:49:31;6.85;;;2.13;;
77076;SDS011;66003;52.286;104.306;2023-04-02T01:51:53;9.88;;;3.05;;
77076;SDS011;66003;52.286;104.306;2023-04-02T01:54:23;7.75;;;2.25;;
77076;SDS011;66003;52.286;104.306;2023-04-02T01:56:53;13.98;;;3.40;;
77076;SDS011;66003;52.286;104.306;2023-04-02T01:59:21;9.77;;;2.17;;
77076;SDS011;66003;52.286;104.306;2023-04-02T02:04:23;8.55;;;3.38;;
77076;SDS011;66003;52.286;104.306;2023-04-02T02:06:49;11.85;;;3.03;;
77076;SDS011;66003;52.286;104.306;2023-04-02T02:09:18;8.00;;;3.17;;
77076;SDS011;66003;52.286;104.306;2023-04-02T02:11:48;7.30;;;2.90;;
77076;SDS011;66003;52.286;104.306;2023-04-02T02:14:22;9.18;;;2.80;;
77076;SDS011;66003;52.286;104.306;2023-04-02T02:17:16;7.38;;;2.15;;
77076;SDS011;66003;52.286;104.306;2023-04-02T02:19:46;8.23;;;2.58;;
77076;SDS011;66003;52.286;104.306;2023-04-02T02:22:27;10.05;;;2.92;;
77076;SDS011;66003;52.286;104.306;2023-04-02T02:24:58;4.78;;;2.30;;
77076;SDS011;66003;52.286;104.306;2023-04-02T02:32:22;10.45;;;2.22;;
77076;SDS011;66003;52.286;104.306;2023-04-02T02:34:58;10.05;;;2.47;;
77076;SDS011;66003;52.286;104.306;2023-04-02T02:37:42;8.55;;;2.15;;
77076;SDS011;66003;52.286;104.306;2023-04-02T02:40:12;7.22;;;1.95;;
77076;SDS011;66003;52.286;104.306;2023-04-02T02:42:49;6.65;;;2.28;;
77076;SDS011;66003;52.286;104.306;2023-04-02T02:45:20;6.43;;;1.77;;
77076;SDS011;66003;52.286;104.306;2023-04-02T02:47:49;3.95;;;1.42;;
77076;SDS011;66003;52.286;104.306;2023-04-02T02:50:20;4.43;;;1.45;;
77076;SDS011;66003;52.286;104.306;2023-04-02T02:52:52;7.55;;;2.08;;
77076;SDS011;66003;52.286;104.306;2023-04-02T02:55:23;4.10;;;1.27;;
77076;SDS011;66003;52.286;104.306;2023-04-02T03:00:56;3.75;;;1.33;;
77076;SDS011;66003;52.286;104.306;2023-04-02T03:05:52;4.75;;;1.17;;
77076;SDS011;66003;52.286;104.306;2023-04-02T03:08:26;1.75;;;1.17;;
77076;SDS011;66003;52.286;104.306;2023-04-02T03:11:04;3.38;;;1.30;;
77076;SDS011;66003;52.286;104.306;2023-04-02T03:13:44;5.40;;;1.55;;
77076;SDS011;66003;52.286;104.306;2023-04-02T03:18:57;1.23;;;1.17;;
77076;SDS011;66003;52.286;104.306;2023-04-02T03:21:33;2.90;;;1.20;;
77076;SDS011;66003;52.286;104.306;2023-04-02T03:24:18;4.07;;;1.17;;
77076;SDS011;66003;52.286;104.306;2023-04-02T03:26:57;2.80;;;1.15;;
77076;SDS011;66003;52.286;104.306;2023-04-02T03:29:53;1.73;;;0.82;;
77076;SDS011;66003;52.286;104.306;2023-04-02T03:32:43;1.90;;;0.90;;
77076;SDS011;66003;52.286;104.306;2023-04-02T03:38:12;1.48;;;1.23;;
77076;SDS011;66003;52.286;104.306;2023-04-02T03:40:52;1.92;;;0.70;;
77076;SDS011;66003;52.286;104.306;2023-04-02T03:43:27;3.00;;;1.10;;
77076;SDS011;66003;52.286;104.306;2023-04-02T03:46:13;1.10;;;0.82;;
77076;SDS011;66003;52.286;104.306;2023-04-02T03:48:54;3.05;;;0.82;;
77076;SDS011;66003;52.286;104.306;2023-04-02T03:51:29;3.00;;;1.02;;
77076;SDS011;66003;52.286;104.306;2023-04-02T03:54:01;1.52;;;0.50;;
77076;SDS011;66003;52.286;104.306;2023-04-02T03:56:30;4.57;;;0.57;;
77076;SDS011;66003;52.286;104.306;2023-04-02T04:01:52;2.17;;;1.05;;
77076;SDS011;66003;52.286;104.306;2023-04-02T04:04:24;5.95;;;1.23;;
77076;SDS011;66003;52.286;104.306;2023-04-02T04:06:56;2.58;;;0.55;;
77076;SDS011;66003;52.286;104.306;2023-04-02T04:09:28;3.20;;;0.70;;
77076;SDS011;66003;52.286;104.306;2023-04-02T04:12:42;3.72;;;1.17;;
77076;SDS011;66003;52.286;104.306;2023-04-02T04:15:13;2.25;;;1.17;;
77076;SDS011;66003;52.286;104.306;2023-04-02T04:17:45;3.30;;;1.27;;
77076;SDS011;66003;52.286;104.306;2023-04-02T04:26:13;1.88;;;0.70;;
77076;SDS011;66003;52.286;104.306;2023-04-02T04:32:26;3.65;;;1.17;;
77076;SDS011;66003;52.286;104.306;2023-04-02T04:35:00;1.25;;;1.08;;
77076;SDS011;66003;52.286;104.306;2023-04-02T04:37:35;1.02;;;0.35;;
77076;SDS011;66003;52.286;104.306;2023-04-02T04:40:15;1.98;;;0.68;;
77076;SDS011;66003;52.286;104.306;2023-04-02T04:42:43;1.08;;;0.90;;
77076;SDS011;66003;52.286;104.306;2023-04-02T04:45:15;2.47;;;0.88;;
77076;SDS011;66003;52.286;104.306;2023-04-02T04:47:43;0.50;;;0.50;;
77076;SDS011;66003;52.286;104.306;2023-04-02T04:53:07;3.50;;;0.57;;
77076;SDS011;66003;52.286;104.306;2023-04-02T04:55:39;1.17;;;0.65;;
77076;SDS011;66003;52.286;104.306;2023-04-02T05:00:58;4.68;;;1.35;;
77076;SDS011;66003;52.286;104.306;2023-04-02T05:03:40;4.00;;;0.95;;
77076;SDS011;66003;52.286;104.306;2023-04-02T05:09:12;1.13;;;0.70;;
77076;SDS011;66003;52.286;104.306;2023-04-02T05:11:59;0.88;;;0.68;;
77076;SDS011;66003;52.286;104.306;2023-04-02T05:14:52;1.20;;;1.20;;
77076;SDS011;66003;52.286;104.306;2023-04-02T05:17:35;1.42;;;0.47;;
77076;SDS011;66003;52.286;104.306;2023-04-02T05:23:28;1.95;;;0.63;;
77076;SDS011;66003;52.286;104.306;2023-04-02T05:28:35;0.75;;;0.20;;
77076;SDS011;66003;52.286;104.306;2023-04-02T05:31:24;4.25;;;0.52;;
77076;SDS011;66003;52.286;104.306;2023-04-02T05:36:45;1.08;;;0.32;;
77076;SDS011;66003;52.286;104.306;2023-04-02T05:39:15;1.48;;;0.57;;
77076;SDS011;66003;52.286;104.306;2023-04-02T05:41:47;3.22;;;1.35;;
77076;SDS011;66003;52.286;104.306;2023-04-02T05:44:25;1.65;;;0.40;;
77076;SDS011;66003;52.286;104.306;2023-04-02T05:47:06;1.25;;;0.77;;
77076;SDS011;66003;52.286;104.306;2023-04-02T05:52:16;2.13;;;0.38;;
77076;SDS011;66003;52.286;104.306;2023-04-02T05:54:57;1.13;;;0.98;;
77076;SDS011;66003;52.286;104.306;2023-04-02T05:57:32;0.90;;;0.47;;
77076;SDS011;66003;52.286;104.306;2023-04-02T06:00:04;2.42;;;0.43;;
77076;SDS011;66003;52.286;104.306;2023-04-02T06:02:38;4.85;;;1.23;;
77076;SDS011;66003;52.286;104.306;2023-04-02T06:05:25;0.25;;;0.25;;
77076;SDS011;66003;52.286;104.306;2023-04-02T06:08:49;0.52;;;0.52;;
77076;SDS011;66003;52.286;104.306;2023-04-02T06:11:25;1.13;;;0.57;;
77076;SDS011;66003;52.286;104.306;2023-04-02T06:13:56;1.02;;;0.60;;
77076;SDS011;66003;52.286;104.306;2023-04-02T06:16:24;0.82;;;0.47;;
77076;SDS011;66003;52.286;104.306;2023-04-02T06:18:52;4.47;;;0.68;;
77076;SDS011;66003;52.286;104.306;2023-04-02T06:21:20;2.80;;;0.90;;
77076;SDS011;66003;52.286;104.306;2023-04-02T06:23:57;0.80;;;0.80;;
77076;SDS011;66003;52.286;104.306;2023-04-02T06:26:32;2.47;;;0.77;;
77076;SDS011;66003;52.286;104.306;2023-04-02T06:32:07;2.15;;;1.35;;
77076;SDS011;66003;52.286;104.306;2023-04-02T06:34:36;0.60;;;0.60;;
77076;SDS011;66003;52.286;104.306;2023-04-02T06:37:25;1.75;;;1.00;;
77076;SDS011;66003;52.286;104.306;2023-04-02T06:39:56;1.02;;;0.57;;
77076;SDS011;66003;52.286;104.306;2023-04-02T06:42:30;1.58;;;0.70;;
77076;SDS011;66003;52.286;104.306;2023-04-02T06:45:01;3.60;;;0.88;;
77076;SDS011;66003;52.286;104.306;2023-04-02T06:50:15;2.03;;;0.63;;
77076;SDS011;66003;52.286;104.306;2023-04-02T06:52:49;0.55;;;0.55;;
77076;SDS011;66003;52.286;104.306;2023-04-02T06:58:01;5.22;;;1.73;;
77076;SDS011;66003;52.286;104.306;2023-04-02T07:00:38;4.53;;;1.38;;
77076;SDS011;66003;52.286;104.306;2023-04-02T07:03:20;0.95;;;0.90;;
77076;SDS011;66003;52.286;104.306;2023-04-02T07:05:50;1.27;;;0.75;;
77076;SDS011;66003;52.286;104.306;2023-04-02T07:08:17;1.63;;;1.05;;
77076;SDS011;66003;52.286;104.306;2023-04-02T07:10:43;3.85;;;0.75;;
77076;SDS011;66003;52.286;104.306;2023-04-02T07:13:16;1.30;;;0.73;;
77076;SDS011;66003;52.286;104.306;2023-04-02T07:15:46;1.83;;;0.93;;
77076;SDS011;66003;52.286;104.306;2023-04-02T07:18:28;3.83;;;0.93;;
77076;SDS011;66003;52.286;104.306;2023-04-02T07:20:55;2.38;;;1.63;;
77076;SDS011;66003;52.286;104.306;2023-04-02T07:23:22;4.38;;;1.88;;
77076;SDS011;66003;52.286;104.306;2023-04-02T07:26:04;5.70;;;1.38;;
77076;SDS011;66003;52.286;104.306;2023-04-02T07:28:54;1.63;;;1.00;;
77076;SDS011;66003;52.286;104.306;2023-04-02T07:31:22;6.03;;;1.23;;
77076;SDS011;66003;52.286;104.306;2023-04-02T07:33:50;2.88;;;1.10;;
77076;SDS011;66003;52.286;104.306;2023-04-02T07:36:20;3.58;;;1.63;;
77076;SDS011;66003;52.286;104.306;2023-04-02T07:38:48;1.30;;;0.77;;
77076;SDS011;66003;52.286;104.306;2023-04-02T07:41:15;1.60;;;1.05;;
77076;SDS011;66003;52.286;104.306;2023-04-02T07:43:42;1.30;;;1.20;;
77076;SDS011;66003;52.286;104.306;2023-04-02T07:46:09;1.60;;;0.77;;
77076;SDS011;66003;52.286;104.306;2023-04-02T07:48:36;1.08;;;0.35;;
77076;SDS011;66003;52.286;104.306;2023-04-02T07:51:02;1.77;;;1.45;;
77076;SDS011;66003;52.286;104.306;2023-04-02T07:53:33;2.38;;;0.90;;
77076;SDS011;66003;52.286;104.306;2023-04-02T07:56:04;3.25;;;0.70;;
77076;SDS011;66003;52.286;104.306;2023-04-02T07:58:32;2.78;;;0.43;;
77076;SDS011;66003;52.286;104.306;2023-04-02T08:00:59;1.50;;;0.63;;
77076;SDS011;66003;52.286;104.306;2023-04-02T08:03:28;3.25;;;0.82;;
77076;SDS011;66003;52.286;104.306;2023-04-02T08:05:55;1.52;;;1.08;;
77076;SDS011;66003;52.286;104.306;2023-04-02T08:08:23;1.75;;;1.02;;
77076;SDS011;66003;52.286;104.306;2023-04-02T08:13:16;0.95;;;0.93;;
77076;SDS011;66003;52.286;104.306;2023-04-02T08:15:43;1.98;;;0.88;;
77076;SDS011;66003;52.286;104.306;2023-04-02T08:18:10;1.92;;;0.88;;
77076;SDS011;66003;52.286;104.306;2023-04-02T08:20:36;1.20;;;1.02;;
77076;SDS011;66003;52.286;104.306;2023-04-02T08:23:03;1.58;;;0.82;;
77076;SDS011;66003;52.286;104.306;2023-04-02T08:25:31;2.22;;;1.95;;
77076;SDS011;66003;52.286;104.306;2023-04-02T08:27:57;1.00;;;0.50;;
77076;SDS011;66003;52.286;104.306;2023-04-02T08:30:25;0.77;;;0.28;;
77076;SDS011;66003;52.286;104.306;2023-04-02T08:32:51;2.67;;;1.15;;
77076;SDS011;66003;52.286;104.306;2023-04-02T08:35:17;4.35;;;1.40;;
77076;SDS011;66003;52.286;104.306;2023-04-02T08:37:44;1.40;;;1.20;;
77076;SDS011;66003;52.286;104.306;2023-04-02T08:40:21;2.83;;;1.33;;
77076;SDS011;66003;52.286;104.306;2023-04-02T08:43:09;2.78;;;0.85;;
77076;SDS011;66003;52.286;104.306;2023-04-02T08:46:00;1.45;;;1.02;;
77076;SDS011;66003;52.286;104.306;2023-04-02T08:48:43;2.53;;;1.33;;
77076;SDS011;66003;52.286;104.306;2023-04-02T08:51:20;2.15;;;1.35;;
77076;SDS011;66003;52.286;104.306;2023-04-02T08:53:49;2.88;;;1.23;;
77076;SDS011;66003;52.286;104.306;2023-04-02T08:59:19;1.95;;;0.68;;
77076;SDS011;66003;52.286;104.306;2023-04-02T09:04:43;0.80;;;0.40;;
77076;SDS011;66003;52.286;104.306;2023-04-02T09:07:14;2.22;;;0.88;;
77076;SDS011;66003;52.286;104.306;2023-04-02T09:09:41;4.35;;;1.05;;
77076;SDS011;66003;52.286;104.306;2023-04-02T09:12:23;2.67;;;0.70;;
77076;SDS011;66003;52.286;104.306;2023-04-02T09:17:19;1.27;;;0.88;;
77076;SDS011;66003;52.286;104.306;2023-04-02T09:20:30;1.95;;;0.68;;
77076;SDS011;66003;52.286;104.306;2023-04-02T09:22:49;0.85;;;0.77;;
77076;SDS011;66003;52.286;104.306;2023-04-02T09:25:19;0.90;;;0.40;;
77076;SDS011;66003;52.286;104.306;2023-04-02T09:27:50;7.40;;;1.38;;
77076;SDS011;66003;52.286;104.306;2023-04-02T09:30:22;5.85;;;0.75;;
77076;SDS011;66003;52.286;104.306;2023-04-02T09:33:07;1.00;;;0.93;;
77076;SDS011;66003;52.286;104.306;2023-04-02T09:35:54;2.58;;;0.88;;
77076;SDS011;66003;52.286;104.306;2023-04-02T09:38:25;0.43;;;0.28;;
77076;SDS011;66003;52.286;104.306;2023-04-02T09:41:04;4.10;;;1.10;;
77076;SDS011;66003;52.286;104.306;2023-04-02T09:43:36;6.40;;;0.90;;
77076;SDS011;66003;52.286;104.306;2023-04-02T09:48:48;2.97;;;1.42;;
77076;SDS011;66003;52.286;104.306;2023-04-02T09:51:19;1.00;;;0.95;;
77076;SDS011;66003;52.286;104.306;2023-04-02T09:53:48;3.22;;;0.95;;
77076;SDS011;66003;52.286;104.306;2023-04-02T09:56:20;2.53;;;1.13;;
77076;SDS011;66003;52.286;104.306;2023-04-02T09:59:04;3.45;;;0.98;;
77076;SDS011;66003;52.286;104.306;2023-04-02T10:01:40;1.20;;;1.05;;
77076;SDS011;66003;52.286;104.306;2023-04-02T10:07:00;0.40;;;0.40;;
77076;SDS011;66003;52.286;104.306;2023-04-02T10:09:29;1.85;;;0.77;;
77076;SDS011;66003;52.286;104.306;2023-04-02T10:11:57;2.35;;;1.35;;
77076;SDS011;66003;52.286;104.306;2023-04-02T10:14:35;5.75;;;0.90;;
77076;SDS011;66003;52.286;104.306;2023-04-02T10:19:35;2.65;;;0.65;;
77076;SDS011;66003;52.286;104.306;2023-04-02T10:22:16;1.85;;;0.35;;
77076;SDS011;66003;52.286;104.306;2023-04-02T10:24:45;1.48;;;1.08;;
77076;SDS011;66003;52.286;104.306;2023-04-02T10:35:39;1.63;;;1.52;;
77076;SDS011;66003;52.286;104.306;2023-04-02T10:51:54;2.17;;;1.23;;
77076;SDS011;66003;52.286;104.306;2023-04-02T10:56:56;2.38;;;2.17;;
77076;SDS011;66003;52.286;104.306;2023-04-02T10:59:46;2.88;;;1.88;;
77076;SDS011;66003;52.286;104.306;2023-04-02T11:08:14;1.40;;;1.30;;
77076;SDS011;66003;52.286;104.306;2023-04-02T11:10:45;1.25;;;0.95;;
77076;SDS011;66003;52.286;104.306;2023-04-02T11:13:29;1.75;;;1.27;;
77076;SDS011;66003;52.286;104.306;2023-04-02T11:16:01;1.90;;;1.10;;
77076;SDS011;66003;52.286;104.306;2023-04-02T11:18:29;3.90;;;1.30;;
77076;SDS011;66003;52.286;104.306;2023-04-02T11:21:06;2.03;;;1.38;;
77076;SDS011;66003;52.286;104.306;2023-04-02T11:23:55;4.07;;;1.45;;
77076;SDS011;66003;52.286;104.306;2023-04-02T11:26:42;3.08;;;2.05;;
77076;SDS011;66003;52.286;104.306;2023-04-02T11:29:19;1.75;;;1.45;;
77076;SDS011;66003;52.286;104.306;2023-04-02T11:32:52;4.20;;;1.42;;
77076;SDS011;66003;52.286;104.306;2023-04-02T11:37:33;1.20;;;0.43;;
77076;SDS011;66003;52.286;104.306;2023-04-02T11:42:47;2.88;;;1.80;;
77076;SDS011;66003;52.286;104.306;2023-04-02T11:50:34;2.25;;;1.52;;
77076;SDS011;66003;52.286;104.306;2023-04-02T11:55:38;0.73;;;0.73;;
77076;SDS011;66003;52.286;104.306;2023-04-02T12:06:29;7.53;;;2.17;;
77076;SDS011;66003;52.286;104.306;2023-04-02T12:09:24;9.85;;;3.88;;
77076;SDS011;66003;52.286;104.306;2023-04-02T12:11:52;12.45;;;3.05;;
77076;SDS011;66003;52.286;104.306;2023-04-02T12:20:12;11.75;;;4.30;;
77076;SDS011;66003;52.286;104.306;2023-04-02T12:22:48;6.18;;;2.60;;
77076;SDS011;66003;52.286;104.306;2023-04-02T12:25:24;10.45;;;3.72;;
77076;SDS011;66003;52.286;104.306;2023-04-02T12:28:16;9.20;;;3.15;;
77076;SDS011;66003;52.286;104.306;2023-04-02T12:30:43;5.07;;;2.78;;
77076;SDS011;66003;52.286;104.306;2023-04-02T12:36:06;2.60;;;1.50;;
77076;SDS011;66003;52.286;104.306;2023-04-02T12:38:48;6.40;;;2.15;;
77076;SDS011;66003;52.286;104.306;2023-04-02T12:44:33;3.28;;;1.00;;
77076;SDS011;66003;52.286;104.306;2023-04-02T12:46:40;5.63;;;1.67;;
77076;SDS011;66003;52.286;104.306;2023-04-02T12:51:52;1.83;;;1.70;;
77076;SDS011;66003;52.286;104.306;2023-04-02T12:54:19;6.15;;;2.33;;
77076;SDS011;66003;52.286;104.306;2023-04-02T12:56:46;2.60;;;1.63;;
77076;SDS011;66003;52.286;104.306;2023-04-02T13:01:57;13.48;;;2.42;;
77076;SDS011;66003;52.286;104.306;2023-04-02T13:04:25;3.40;;;1.83;;
77076;SDS011;66003;52.286;104.306;2023-04-02T13:06:52;6.63;;;2.53;;
77076;SDS011;66003;52.286;104.306;2023-04-02T13:09:31;7.63;;;3.28;;
77076;SDS011;66003;52.286;104.306;2023-04-02T13:12:00;6.63;;;1.80;;
77076;SDS011;66003;52.286;104.306;2023-04-02T13:14:27;6.70;;;2.38;;
77076;SDS011;66003;52.286;104.306;2023-04-02T13:16:55;7.20;;;1.95;;
77076;SDS011;66003;52.286;104.306;2023-04-02T13:21:52;4.90;;;2.17;;
77076;SDS011;66003;52.286;104.306;2023-04-02T13:24:29;3.88;;;1.17;;
77076;SDS011;66003;52.286;104.306;2023-04-02T13:27:01;5.93;;;2.72;;
77076;SDS011;66003;52.286;104.306;2023-04-02T13:29:31;4.95;;;1.90;;
77076;SDS011;66003;52.286;104.306;2023-04-02T13:32:03;2.70;;;1.75;;
77076;SDS011;66003;52.286;104.306;2023-04-02T13:34:36;7.70;;;1.60;;
77076;SDS011;66003;52.286;104.306;2023-04-02T13:37:02;4.90;;;1.92;;
77076;SDS011;66003;52.286;104.306;2023-04-02T13:39:28;7.72;;;1.80;;
77076;SDS011;66003;52.286;104.306;2023-04-02T13:41:59;3.50;;;1.90;;
77076;SDS011;66003;52.286;104.306;2023-04-02T13:44:30;3.15;;;1.75;;
77076;SDS011;66003;52.286;104.306;2023-04-02T13:46:58;2.45;;;2.10;;
77076;SDS011;66003;52.286;104.306;2023-04-02T13:49:25;6.88;;;2.60;;
77076;SDS011;66003;52.286;104.306;2023-04-02T13:51:53;2.03;;;1.05;;
77076;SDS011;66003;52.286;104.306;2023-04-02T13:57:07;5.45;;;1.60;;
77076;SDS011;66003;52.286;104.306;2023-04-02T13:59:34;2.42;;;1.55;;
77076;SDS011;66003;52.286;104.306;2023-04-02T14:02:05;7.72;;;1.58;;
77076;SDS011;66003;52.286;104.306;2023-04-02T14:04:39;3.63;;;1.92;;
77076;SDS011;66003;52.286;104.306;2023-04-02T14:12:42;3.60;;;2.50;;
77076;SDS011;66003;52.286;104.306;2023-04-02T14:23:42;2.65;;;1.05;;
77076;SDS011;66003;52.286;104.306;2023-04-02T14:31:46;9.15;;;2.85;;
77076;SDS011;66003;52.286;104.306;2023-04-02T14:37:26;3.20;;;1.80;;
77076;SDS011;66003;52.286;104.306;2023-04-02T14:42:57;3.60;;;2.08;;
77076;SDS011;66003;52.286;104.306;2023-04-02T14:48:09;2.25;;;1.23;;
77076;SDS011;66003;52.286;104.306;2023-04-02T14:50:54;1.42;;;1.20;;
77076;SDS011;66003;52.286;104.306;2023-04-02T14:56:07;9.10;;;2.78;;
77076;SDS011;66003;52.286;104.306;2023-04-02T14:58:39;8.50;;;2.70;;
77076;SDS011;66003;52.286;104.306;2023-04-02T15:01:34;5.60;;;2.13;;
77076;SDS011;66003;52.286;104.306;2023-04-02T15:12:39;3.50;;;1.42;;
77076;SDS011;66003;52.286;104.306;2023-04-02T15:18:05;2.15;;;0.88;;
77076;SDS011;66003;52.286;104.306;2023-04-02T15:20:38;3.78;;;2.10;;
77076;SDS011;66003;52.286;104.306;2023-04-02T15:26:01;2.97;;;1.98;;
77076;SDS011;66003;52.286;104.306;2023-04-02T15:31:36;1.05;;;0.70;;
77076;SDS011;66003;52.286;104.306;2023-04-02T15:37:06;2.67;;;2.45;;
77076;SDS011;66003;52.286;104.306;2023-04-02T15:40:04;4.65;;;1.42;;
77076;SDS011;66003;52.286;104.306;2023-04-02T15:42:57;2.22;;;2.03;;
77076;SDS011;66003;52.286;104.306;2023-04-02T15:45:45;3.42;;;2.45;;
77076;SDS011;66003;52.286;104.306;2023-04-02T15:49:10;8.63;;;2.85;;
77076;SDS011;66003;52.286;104.306;2023-04-02T15:57:01;3.70;;;1.27;;
77076;SDS011;66003;52.286;104.306;2023-04-02T16:10:41;2.90;;;0.95;;
77076;SDS011;66003;52.286;104.306;2023-04-02T16:21:39;1.27;;;0.68;;
77076;SDS011;66003;52.286;104.306;2023-04-02T16:24:13;2.03;;;0.80;;
77076;SDS011;66003;52.286;104.306;2023-04-02T16:37:34;4.43;;;0.98;;
77076;SDS011;66003;52.286;104.306;2023-04-02T16:42:47;4.78;;;1.50;;
77076;SDS011;66003;52.286;104.306;2023-04-02T16:51:06;2.25;;;1.75;;
77076;SDS011;66003;52.286;104.306;2023-04-02T16:53:50;2.65;;;1.27;;
77076;SDS011;66003;52.286;104.306;2023-04-02T16:59:18;2.58;;;1.52;;
77076;SDS011;66003;52.286;104.306;2023-04-02T17:04:39;2.13;;;1.75;;
77076;SDS011;66003;52.286;104.306;2023-04-02T17:10:18;3.30;;;1.63;;
77076;SDS011;66003;52.286;104.306;2023-04-02T17:13:24;1.48;;;1.38;;
77076;SDS011;66003;52.286;104.306;2023-04-02T17:18:36;1.23;;;1.02;;
77076;SDS011;66003;52.286;104.306;2023-04-02T17:21:05;0.93;;;0.93;;
77076;SDS011;66003;52.286;104.306;2023-04-02T17:23:45;1.35;;;0.73;;
77076;SDS011;66003;52.286;104.306;2023-04-02T17:26:15;3.08;;;1.38;;
77076;SDS011;66003;52.286;104.306;2023-04-02T17:28:44;3.30;;;1.70;;
77076;SDS011;66003;52.286;104.306;2023-04-02T17:31:21;1.63;;;1.08;;
77076;SDS011;66003;52.286;104.306;2023-04-02T17:33:48;1.83;;;1.52;;
77076;SDS011;66003;52.286;104.306;2023-04-02T17:47:13;1.42;;;1.33;;
77076;SDS011;66003;52.286;104.306;2023-04-02T18:06:53;1.05;;;0.95;;
77076;SDS011;66003;52.286;104.306;2023-04-02T18:31:03;5.47;;;2.67;;
77076;SDS011;66003;52.286;104.306;2023-04-02T18:41:43;1.70;;;1.13;;
77076;SDS011;66003;52.286;104.306;2023-04-02T18:44:24;2.42;;;1.73;;
77076;SDS011;66003;52.286;104.306;2023-04-02T18:52:37;7.72;;;1.90;;
77076;SDS011;66003;52.286;104.306;2023-04-02T18:55:04;8.30;;;2.47;;
77076;SDS011;66003;52.286;104.306;2023-04-02T18:57:38;1.08;;;1.08;;
77076;SDS011;66003;52.286;104.306;2023-04-02T19:03:05;2.53;;;2.40;;
77076;SDS011;66003;52.286;104.306;2023-04-02T19:05:54;1.58;;;0.43;;
77076;SDS011;66003;52.286;104.306;2023-04-02T19:08:24;0.88;;;0.82;;
77076;SDS011;66003;52.286;104.306;2023-04-02T19:10:59;1.15;;;1.15;;
77076;SDS011;66003;52.286;104.306;2023-04-02T19:13:33;2.60;;;1.20;;
77076;SDS011;66003;52.286;104.306;2023-04-02T19:26:59;3.42;;;2.63;;
77076;SDS011;66003;52.286;104.306;2023-04-02T19:29:35;1.38;;;1.27;;
77076;SDS011;66003;52.286;104.306;2023-04-02T19:34:58;5.18;;;3.25;;
77076;SDS011;66003;52.286;104.306;2023-04-02T19:37:38;7.00;;;2.45;;
77076;SDS011;66003;52.286;104.306;2023-04-02T19:42:42;4.50;;;2.47;;
77076;SDS011;66003;52.286;104.306;2023-04-02T19:48:10;5.38;;;3.25;;
77076;SDS011;66003;52.286;104.306;2023-04-02T19:50:43;6.22;;;3.67;;
77076;SDS011;66003;52.286;104.306;2023-04-02T19:53:11;2.88;;;1.58;;
77076;SDS011;66003;52.286;104.306;2023-04-02T19:55:38;1.38;;;1.35;;
77076;SDS011;66003;52.286;104.306;2023-04-02T19:58:05;0.82;;;0.80;;
77076;SDS011;66003;52.286;104.306;2023-04-02T20:00:31;2.67;;;1.55;;
77076;SDS011;66003;52.286;104.306;2023-04-02T20:02:57;1.10;;;0.52;;
77076;SDS011;66003;52.286;104.306;2023-04-02T20:05:23;1.27;;;0.98;;
77076;SDS011;66003;52.286;104.306;2023-04-02T20:07:49;0.55;;;0.55;;
77076;SDS011;66003;52.286;104.306;2023-04-02T20:10:15;5.43;;;2.20;;
77076;SDS011;66003;52.286;104.306;2023-04-02T20:12:42;1.40;;;1.30;;
77076;SDS011;66003;52.286;104.306;2023-04-02T20:15:08;1.88;;;1.52;;
77076;SDS011;66003;52.286;104.306;2023-04-02T20:17:35;1.67;;;1.58;;
77076;SDS011;66003;52.286;104.306;2023-04-02T20:20:01;0.63;;;0.63;;
77076;SDS011;66003;52.286;104.306;2023-04-02T20:22:27;2.05;;;1.35;;
77076;SDS011;66003;52.286;104.306;2023-04-02T20:24:53;1.55;;;1.55;;
77076;SDS011;66003;52.286;104.306;2023-04-02T20:27:19;1.00;;;1.00;;
77076;SDS011;66003;52.286;104.306;2023-04-02T20:29:45;5.72;;;2.42;;
77076;SDS011;66003;52.286;104.306;2023-04-02T20:32:12;1.08;;;0.70;;
77076;SDS011;66003;52.286;104.306;2023-04-02T20:34:38;0.93;;;0.93;;
77076;SDS011;66003;52.286;104.306;2023-04-02T20:37:04;1.55;;;1.45;;
77076;SDS011;66003;52.286;104.306;2023-04-02T20:39:30;0.98;;;0.98;;
77076;SDS011;66003;52.286;104.306;2023-04-02T20:41:57;3.63;;;1.50;;
77076;SDS011;66003;52.286;104.306;2023-04-02T20:44:27;10.25;;;6.00;;
77076;SDS011;66003;52.286;104.306;2023-04-02T20:46:53;4.97;;;3.83;;
77076;SDS011;66003;52.286;104.306;2023-04-02T20:49:19;3.17;;;2.42;;
77076;SDS011;66003;52.286;104.306;2023-04-02T20:51:46;2.35;;;2.08;;
77076;SDS011;66003;52.286;104.306;2023-04-02T20:54:12;2.42;;;1.60;;
77076;SDS011;66003;52.286;104.306;2023-04-02T20:56:38;2.55;;;1.75;;
77076;SDS011;66003;52.286;104.306;2023-04-02T20:59:04;1.70;;;1.60;;
77076;SDS011;66003;52.286;104.306;2023-04-02T21:01:30;2.28;;;1.50;;
77076;SDS011;66003;52.286;104.306;2023-04-02T21:04:00;10.27;;;3.53;;
77076;SDS011;66003;52.286;104.306;2023-04-02T21:06:29;1.08;;;1.05;;
77076;SDS011;66003;52.286;104.306;2023-04-02T21:08:57;2.67;;;2.05;;
77076;SDS011;66003;52.286;104.306;2023-04-02T21:11:25;5.57;;;2.47;;